Henderson, Maryland
Current Conditions -  °F | °C
As of 9:58 PM on Thursday 18 Dec 2014 (Local Time) from KDOV Reporting Station
Broken Clouds Broken Clouds  
Wind Chill: 30°   Ceiling: 18000
Heat Index: 35°   Visibility: 10mi
Dew Point: 25°   Wind: 6mph
Humidity: 68%   Direction: 270°W
Pressure: 30.06"   Gusts: NA
Location:  39.07°N, 75.77°W
Report Text: KDOV 190258Z AUTO 27005KT 10SM FEW140 BKN180 02/M04 A3006 RMK AO2 SLPNO T00151039 50000
Loading
Personal Weather Stations






























Interactive Weather Map New forecast layout! Learn more

10-Day Weather Forecast

Advertisements
Track Severe Weather on mobile